Time;durP1;ratioP1;P1;durP2;ratioP2;P2;SDS_P1;SDS_P2;PMS_P1;PMS_P2;Temp;Humidity;BMP_temperature;BMP_pressure;BME280_temperature;BME280_humidity;BME280_pressure;Samples;Min_cycle;Max_cycle;Signal;HPM_P1;HPM_P2
2023/12/08 00:00:01;;;;;;;11.00;1.95;;;;;;;13.03;99.23;100676.72;10418472;27;97069;-79
2023/12/08 00:05:08;;;;;;;4.30;1.65;;;;;;;13.00;98.92;100668.06;10418241;28;97330;-79
2023/12/08 00:10:15;;;;;;;11.10;2.10;;;;;;;12.99;98.94;100674.25;10417956;28;97293;-82
2023/12/08 00:15:23;;;;;;;9.82;2.10;;;;;;;13.00;99.07;100658.34;10421555;27;97478;-82
2023/12/08 00:20:32;;;;;;;7.82;1.92;;;;;;;12.96;99.40;100666.47;10432465;27;97576;-83
2023/12/08 00:25:40;;;;;;;;;;;;;;;12.95;99.61;100670.88;10417441;27;96975;-81
2023/12/08 00:30:45;;;;;;;8.82;2.13;;;;;;;12.86;99.59;100712.69;10416731;27;96793;-81
2023/12/08 00:35:52;;;;;;;4.88;1.20;;;;;;;12.65;99.29;100695.06;10416160;27;97137;-83
2023/12/08 00:41:02;;;;;;;4.68;1.05;;;;;;;12.49;98.93;100711.50;10416953;28;98312;-83
2023/12/08 00:46:09;;;;;;;3.13;1.20;;;;;;;12.56;98.96;100743.78;10416449;27;96721;-83
2023/12/08 00:51:13;;;;;;;9.23;2.15;;;;;;;12.63;99.57;100762.88;10374786;28;97274;-80
2023/12/08 00:56:19;;;;;;;11.85;2.03;;;;;;;12.64;100.00;100743.47;10374969;28;97763;-80
2023/12/08 01:01:22;;;;;;;;;;;;;;;12.65;99.70;100748.75;10375310;28;96919;-79
2023/12/08 01:06:27;;;;;;;7.20;1.88;;;;;;;12.61;99.33;100733.91;10403875;27;99173;-79
2023/12/08 01:11:34;;;;;;;6.97;1.90;;;;;;;12.60;99.05;100734.84;10415518;28;96930;-79
2023/12/08 01:16:41;;;;;;;3.33;1.27;;;;;;;12.52;98.73;100736.91;10415169;28;96674;-79
2023/12/08 01:21:45;;;;;;;3.88;1.42;;;;;;;12.49;97.91;100750.25;10427796;27;97245;-79
2023/12/08 01:26:50;;;;;;;8.13;1.20;;;;;;;12.46;97.96;100761.75;10456031;27;96708;-79
2023/12/08 01:31:54;;;;;;;7.40;1.17;;;;;;;12.44;97.47;100753.06;10414520;28;96742;-79
2023/12/08 01:36:57;;;;;;;7.60;1.15;;;;;;;12.45;97.49;100746.00;10413714;27;97103;-79
2023/12/08 01:42:03;;;;;;;6.05;1.20;;;;;;;12.42;97.02;100738.19;10415553;27;96724;-79
2023/12/08 01:47:07;;;;;;;4.93;1.08;;;;;;;12.46;96.49;100747.72;10414467;28;97004;-79
2023/12/08 01:52:17;;;;;;;4.95;0.93;;;;;;;12.45;96.83;100754.78;10414140;28;96790;-78
2023/12/08 01:57:23;;;;;;;8.23;1.13;;;;;;;12.47;96.66;100752.94;10441596;27;96721;-79
2023/12/08 02:02:26;;;;;;;9.30;0.93;;;;;;;12.47;96.89;100758.22;10456195;27;96831;-78
2023/12/08 02:07:31;;;;;;;6.93;1.20;;;;;;;12.43;97.33;100729.34;10455448;27;96735;-78
2023/12/08 02:12:37;;;;;;;5.72;0.90;;;;;;;12.40;97.32;100740.91;10425101;27;97398;-78
2023/12/08 02:17:45;;;;;;;7.38;1.40;;;;;;;12.34;97.57;100721.81;10429261;27;96969;-78
2023/12/08 02:22:50;;;;;;;2.47;1.05;;;;;;;12.29;97.75;100745.72;10413360;28;96726;-78
2023/12/08 02:27:57;;;;;;;;;;;;;;;12.23;97.87;100732.78;10414031;28;96680;-79
2023/12/08 02:33:09;;;;;;;4.55;0.98;;;;;;;12.28;98.26;100729.97;10454496;27;96810;-79
2023/12/08 02:38:21;;;;;;;4.30;1.00;;;;;;;12.33;97.84;100731.50;10454318;27;96905;-79
2023/12/08 02:43:30;;;;;;;1.70;0.80;;;;;;;12.34;97.46;100750.84;10454687;27;97292;-79
2023/12/08 02:48:36;;;;;;;4.57;0.98;;;;;;;12.38;97.32;100762.97;10453452;27;96625;-79
2023/12/08 02:53:41;;;;;;;4.38;1.25;;;;;;;12.47;96.38;100762.63;10453919;27;96823;-79
2023/12/08 02:58:48;;;;;;;3.97;1.13;;;;;;;12.46;96.67;100780.25;10454492;27;97000;-79
2023/12/08 03:03:53;;;;;;;7.13;1.30;;;;;;;12.55;96.04;100777.25;10437954;27;97108;-79
2023/12/08 03:08:59;;;;;;;6.03;0.95;;;;;;;12.64;94.89;100796.28;10412391;28;97758;-79
2023/12/08 03:14:12;;;;;;;7.43;1.33;;;;;;;12.62;94.84;100801.63;10411949;28;97236;-79
2023/12/08 03:19:16;;;;;;;5.57;1.17;;;;;;;12.65;95.21;100798.06;10414042;27;96766;-79
2023/12/08 03:24:21;;;;;;;7.55;1.60;;;;;;;12.75;94.46;100802.91;10453518;27;97138;-79
2023/12/08 03:29:26;;;;;;;3.13;1.17;;;;;;;12.84;94.12;100805.19;10430499;27;97328;-79
2023/12/08 03:34:30;;;;;;;6.88;1.48;;;;;;;12.83;94.18;100810.50;10410467;28;96666;-79
2023/12/08 03:39:34;;;;;;;5.47;1.50;;;;;;;12.85;94.74;100801.63;10412570;27;96733;-79
2023/12/08 03:44:39;;;;;;;5.10;1.13;;;;;;;12.86;94.88;100850.88;10410800;28;96638;-79
2023/12/08 03:49:42;;;;;;;;;;;;;;;12.75;96.05;100842.53;10411527;28;96744;-79
2023/12/08 03:54:45;;;;;;;2.72;0.95;;;;;;;12.75;96.47;100873.34;10410677;27;97352;-81
2023/12/08 04:00:01;;;;;;;5.57;1.08;;;;;;;12.69;96.41;100878.88;10415123;28;97360;-81
2023/12/08 04:05:06;;;;;;;6.73;0.77;;;;;;;12.51;96.36;100870.66;10417666;28;96571;-79
2023/12/08 04:10:10;;;;;;;1.33;0.50;;;;;;;12.43;96.07;100858.69;10418017;27;96625;-79
2023/12/08 04:15:16;;;;;;;3.30;0.73;;;;;;;12.38;96.23;100890.53;10417442;28;96916;-79
2023/12/08 04:20:20;;;;;;;4.82;0.75;;;;;;;12.38;96.00;100879.97;10417459;28;96720;-79
2023/12/08 04:25:23;;;;;;;3.17;0.77;;;;;;;12.40;95.79;100893.13;10416599;28;96803;-79
2023/12/08 04:30:29;;;;;;;6.60;1.00;;;;;;;12.38;95.74;100890.53;10418381;27;96750;-79
2023/12/08 04:35:33;;;;;;;2.47;0.55;;;;;;;12.26;95.91;100885.72;10416146;28;96997;-79
2023/12/08 04:40:36;;;;;;;7.28;1.27;;;;;;;12.13;96.15;100888.84;10416819;28;97407;-79
2023/12/08 04:45:42;;;;;;;3.55;0.55;;;;;;;12.04;95.97;100887.41;10415894;27;97218;-79
2023/12/08 04:50:48;;;;;;;1.90;0.60;;;;;;;11.99;96.12;100891.13;10416150;28;96622;-79
2023/12/08 04:55:51;;;;;;;2.55;0.68;;;;;;;11.94;96.59;100903.59;10416133;28;97012;-79
2023/12/08 05:00:58;;;;;;;2.45;0.57;;;;;;;11.97;96.93;100895.56;10416220;28;96883;-79
2023/12/08 05:06:03;;;;;;;;;;;;;;;11.95;96.91;100897.41;10416376;27;96700;-79
2023/12/08 05:11:08;;;;;;;4.70;0.90;;;;;;;11.94;96.94;100890.41;10414584;27;96714;-79
2023/12/08 05:16:14;;;;;;;3.15;0.65;;;;;;;11.98;97.11;100911.34;10415501;28;97448;-79
2023/12/08 05:21:19;;;;;;;2.72;0.55;;;;;;;12.04;97.06;100907.63;10442412;27;97342;-78
2023/12/08 05:26:25;;;;;;;5.07;1.27;;;;;;;12.05;97.03;100917.25;10457312;27;96699;-82
2023/12/08 05:31:33;;;;;;;4.72;0.90;;;;;;;12.12;96.91;100913.50;10416495;27;96880;-79
2023/12/08 05:36:39;;;;;;;4.65;0.80;;;;;;;12.04;96.81;100915.56;10413997;27;97337;-78
2023/12/08 05:41:43;;;;;;;4.20;0.68;;;;;;;11.96;96.78;100936.91;10414929;28;96639;-79
2023/12/08 05:46:50;;;;;;;3.53;0.70;;;;;;;11.80;96.79;100927.81;10414688;28;96607;-79
2023/12/08 05:51:54;;;;;;;3.70;0.80;;;;;;;11.74;96.98;100924.50;10414424;28;96717;-79
2023/12/08 05:56:58;;;;;;;2.55;0.60;;;;;;;11.62;96.80;100917.88;10414775;27;96984;-79
2023/12/08 06:02:05;;;;;;;3.95;0.98;;;;;;;11.60;97.21;100921.50;10413492;28;96744;-79
2023/12/08 06:07:08;;;;;;;3.22;0.57;;;;;;;11.54;96.96;100922.53;10413697;28;96965;-79
2023/12/08 06:12:12;;;;;;;3.95;0.80;;;;;;;11.52;97.20;100920.84;10440073;27;97058;-79
2023/12/08 06:17:20;;;;;;;2.92;0.57;;;;;;;11.39;97.22;100929.16;10453649;27;97624;-79
2023/12/08 06:22:24;;;;;;;1.95;0.70;;;;;;;11.30;96.98;100920.72;10455149;27;96733;-79
2023/12/08 06:27:29;;;;;;;2.72;0.90;;;;;;;11.25;97.26;100935.81;10442522;27;97270;-79
2023/12/08 06:32:35;;;;;;;3.47;0.75;;;;;;;11.20;96.86;100945.59;10413088;28;97131;-79
2023/12/08 06:37:39;;;;;;;3.85;1.23;;;;;;;11.11;97.03;100962.53;10411994;28;96843;-79
2023/12/08 06:42:42;;;;;;;2.60;0.52;;;;;;;11.06;96.60;100980.22;10412518;28;96683;-78
2023/12/08 06:47:47;;;;;;;4.45;0.82;;;;;;;11.01;96.32;100990.03;10413157;27;96960;-78
2023/12/08 06:52:57;;;;;;;2.17;0.60;;;;;;;11.03;96.63;101001.41;10412007;28;97542;-79
2023/12/08 06:58:00;;;;;;;3.08;0.88;;;;;;;10.97;96.98;101019.16;10412370;28;96528;-79
2023/12/08 07:03:07;;;;;;;1.02;0.47;;;;;;;11.00;96.46;101029.59;10437455;27;96700;-79
2023/12/08 07:08:13;;;;;;;2.38;0.43;;;;;;;10.91;97.11;101025.47;10380082;22;96837;-79
2023/12/08 07:13:28;;;;;;;1.45;0.43;;;;;;;10.82;97.29;101048.53;10356855;28;96700;-79
2023/12/08 07:18:45;;;;;;;6.38;0.80;;;;;;;10.73;97.85;101073.34;10370106;28;97248;-79
2023/12/08 07:23:57;;;;;;;3.05;0.68;;;;;;;10.70;97.83;101075.19;10357115;28;96774;-79
2023/12/08 07:29:05;;;;;;;2.92;0.80;;;;;;;10.66;98.32;101087.56;10329169;28;97504;-79
2023/12/08 07:34:17;;;;;;;2.90;0.60;;;;;;;10.63;98.50;101092.94;10333948;28;97083;-79
2023/12/08 07:39:22;;;;;;;3.35;0.95;;;;;;;10.63;98.04;101085.03;10419336;28;96876;-79
2023/12/08 07:44:25;;;;;;;4.57;0.68;;;;;;;10.64;97.81;101085.91;10418865;28;97413;-79
2023/12/08 07:49:31;;;;;;;3.05;0.70;;;;;;;10.64;98.62;101092.03;10418693;28;96658;-79
2023/12/08 07:54:38;;;;;;;4.40;1.05;;;;;;;10.70;97.90;101094.50;10418156;28;96856;-78
2023/12/08 07:59:44;;;;;;;2.70;0.52;;;;;;;10.76;98.40;101102.25;10411000;28;96834;-79
2023/12/08 08:04:52;;;;;;;5.93;0.90;;;;;;;10.80;98.00;101117.03;10375943;28;96975;-79
2023/12/08 08:09:56;;;;;;;;;;;;;;;10.87;98.02;101120.38;10376699;28;97376;-78
2023/12/08 08:14:59;;;;;;;3.85;0.82;;;;;;;10.91;98.08;101120.25;10376247;28;96701;-79
2023/12/08 08:20:05;;;;;;;1.50;0.68;;;;;;;10.92;97.33;101114.06;10375890;28;96758;-79
2023/12/08 08:25:11;;;;;;;1.63;0.70;;;;;;;11.00;97.43;101105.97;10376356;28;96720;-79
2023/12/08 08:30:15;;;;;;;1.85;0.70;;;;;;;11.05;97.49;101128.63;10375281;28;96783;-79
2023/12/08 08:35:22;;;;;;;3.33;0.70;;;;;;;11.17;97.35;101130.97;10375127;28;96581;-79
2023/12/08 08:40:28;;;;;;;3.70;0.80;;;;;;;11.34;96.80;101126.06;10375494;28;96877;-79
2023/12/08 08:45:33;;;;;;;2.20;0.50;;;;;;;11.48;97.29;101136.22;10376412;28;96680;-79
2023/12/08 08:50:38;;;;;;;5.65;0.28;;;;;;;11.44;96.95;101139.00;10375318;28;97185;-79
2023/12/08 08:55:52;;;;;;;3.67;0.32;;;;;;;11.60;97.14;101148.19;10374979;28;96757;-79
2023/12/08 09:00:55;;;;;;;1.00;0.35;;;;;;;11.66;97.01;101148.00;10374208;28;96800;-79
2023/12/08 09:06:00;;;;;;;0.65;0.38;;;;;;;11.65;96.79;101133.94;10373821;28;96692;-79
2023/12/08 09:11:04;;;;;;;;;;;;;;;11.86;96.72;101154.38;10374973;28;96673;-79
2023/12/08 09:16:07;;;;;;;1.75;0.60;;;;;;;11.94;96.45;101151.53;10376244;28;97352;-79
2023/12/08 09:21:12;;;;;;;1.35;0.40;;;;;;;11.93;96.75;101160.31;10374239;28;97251;-79
2023/12/08 09:26:17;;;;;;;2.53;0.57;;;;;;;12.22;96.09;101160.31;10373902;28;97299;-79
2023/12/08 09:31:21;;;;;;;0.60;0.20;;;;;;;12.36;96.04;101180.03;10373925;28;96823;-79
2023/12/08 09:36:27;;;;;;;3.25;0.10;;;;;;;12.28;95.93;101162.72;10401499;28;96737;-79
2023/12/08 09:41:33;;;;;;;1.70;0.73;;;;;;;12.38;95.57;101174.72;10415250;28;97167;-79
2023/12/08 09:46:37;;;;;;;2.07;1.00;;;;;;;12.41;95.49;101179.91;10414967;28;97135;-79
2023/12/08 09:51:44;;;;;;;2.47;0.82;;;;;;;12.70;95.19;101186.91;10412668;28;96650;-79
2023/12/08 09:56:52;;;;;;;2.92;0.60;;;;;;;12.82;95.39;101194.41;10395918;27;96709;-79
2023/12/08 10:01:57;;;;;;;6.50;1.00;;;;;;;12.92;95.31;101190.53;10372408;28;96857;-79
2023/12/08 10:07:03;;;;;;;5.43;1.00;;;;;;;12.89;95.15;101191.53;10372100;28;96685;-79
2023/12/08 10:12:07;;;;;;;2.05;0.70;;;;;;;12.96;94.81;101187.75;10413502;28;97635;-79
2023/12/08 10:17:11;;;;;;;4.70;1.13;;;;;;;12.97;94.78;101191.25;10413793;27;96693;-79
2023/12/08 10:22:16;;;;;;;2.75;0.70;;;;;;;13.09;94.71;101175.81;10413953;27;96715;-79
2023/12/08 10:27:25;;;;;;;4.03;0.70;;;;;;;13.07;95.08;101166.25;10413786;28;97072;-78
2023/12/08 10:32:29;;;;;;;4.00;1.05;;;;;;;13.18;94.63;101156.13;10413273;28;96783;-79
2023/12/08 10:37:35;;;;;;;3.13;0.90;;;;;;;13.19;94.59;101150.78;10413301;28;97250;-79
2023/12/08 10:42:41;;;;;;;6.20;1.60;;;;;;;13.33;94.24;101155.56;10411505;27;96783;-79
2023/12/08 10:47:49;;;;;;;9.10;1.30;;;;;;;13.34;94.49;101154.69;10412994;27;96810;-79
2023/12/08 10:52:56;;;;;;;5.80;1.35;;;;;;;13.47;94.19;101145.34;10412239;28;96839;-79
2023/12/08 10:58:04;;;;;;;7.13;1.77;;;;;;;13.54;93.32;101147.72;10371059;28;96712;-79
2023/12/08 11:03:12;;;;;;;6.18;1.40;;;;;;;13.61;92.93;101146.56;10376424;28;97606;-79
2023/12/08 11:08:19;;;;;;;6.57;1.67;;;;;;;13.75;92.49;101134.59;10372245;28;97763;-79
2023/12/08 11:13:28;;;;;;;8.02;1.60;;;;;;;13.77;91.60;101148.63;10378224;28;97062;-79
2023/12/08 11:18:35;;;;;;;7.95;1.80;;;;;;;13.86;91.55;101140.34;10379886;28;97016;-79
2023/12/08 11:23:42;;;;;;;10.45;2.25;;;;;;;14.02;90.37;101131.75;10378270;28;96929;-79
2023/12/08 11:28:57;;;;;;;4.65;1.83;;;;;;;14.09;89.59;101132.41;10377626;28;96786;-79
2023/12/08 11:34:06;;;;;;;6.15;1.23;;;;;;;14.10;89.54;101136.75;10376733;28;97058;-79
2023/12/08 11:39:44;;;;;;;8.52;2.00;;;;;;;14.27;87.80;101135.16;10377242;28;96762;-79
2023/12/08 11:44:49;;;;;;;3.28;1.20;;;;;;;14.51;86.62;101136.81;10374033;28;97434;-79
2023/12/08 11:49:57;;;;;;;4.15;1.42;;;;;;;14.60;87.19;101138.19;10383695;28;97491;-79
2023/12/08 11:55:09;;;;;;;2.90;1.20;;;;;;;14.91;87.12;101137.75;10385022;28;97361;-79
2023/12/08 12:00:21;;;;;;;5.97;1.25;;;;;;;15.18;85.71;101144.50;10376838;28;96715;-79
2023/12/08 12:05:26;;;;;;;2.65;1.13;;;;;;;15.35;83.27;101134.91;10376082;28;96895;-79
2023/12/08 12:10:34;;;;;;;8.02;2.45;;;;;;;15.39;77.16;101117.91;10377826;28;97406;-79
2023/12/08 12:15:38;;;;;;;6.97;1.77;;;;;;;15.52;79.04;101110.25;10375954;28;96828;-79
2023/12/08 12:20:42;;;;;;;10.23;1.83;;;;;;;15.74;77.77;101081.78;10376693;28;97170;-79
2023/12/08 12:25:49;;;;;;;4.70;1.20;;;;;;;16.02;78.88;101086.63;10375276;28;96983;-79
2023/12/08 12:30:52;;;;;;;8.05;1.27;;;;;;;16.20;75.66;101080.44;10375550;28;96761;-79
2023/12/08 12:35:56;;;;;;;5.90;1.30;;;;;;;16.52;76.47;101037.19;10374985;28;96859;-79
2023/12/08 12:41:22;;;;;;;6.35;1.35;;;;;;;16.35;71.55;101043.34;10375810;28;96741;-79
2023/12/08 12:46:32;;;;;;;3.17;1.08;;;;;;;16.25;75.43;101050.06;10375199;28;96710;-79
2023/12/08 12:51:37;;;;;;;5.30;1.07;;;;;;;16.20;74.39;101032.63;10372434;28;96919;-81
2023/12/08 12:56:50;;;;;;;4.70;0.90;;;;;;;16.17;74.04;101038.09;10373022;28;98192;-78
2023/12/08 13:01:54;;;;;;;4.82;1.23;;;;;;;16.18;74.52;101061.03;10374423;28;96808;-77
2023/12/08 13:06:58;;;;;;;3.55;1.55;;;;;;;16.13;72.77;101063.94;10368664;28;97173;-77
2023/12/08 13:12:04;;;;;;;3.95;1.00;;;;;;;16.03;70.48;101069.78;10375961;28;96894;-75
2023/12/08 13:17:08;;;;;;;8.68;1.50;;;;;;;16.14;70.60;101073.63;10375248;28;97316;-74
2023/12/08 13:22:11;;;;;;;4.50;1.50;;;;;;;16.17;69.33;101064.66;10371391;28;98062;-74
2023/12/08 13:27:16;;;;;;;4.78;1.38;;;;;;;16.33;70.22;101066.44;10373973;28;97290;-75
2023/12/08 13:32:20;;;;;;;6.70;1.30;;;;;;;16.53;69.36;101068.16;10374587;28;97120;-74
2023/12/08 13:37:23;;;;;;;7.05;1.55;;;;;;;16.76;68.79;101065.13;10374494;28;97649;-74
2023/12/08 13:42:28;;;;;;;3.00;1.13;;;;;;;16.64;68.70;101056.00;10374538;28;96867;-75
2023/12/08 13:47:32;;;;;;;7.10;1.25;;;;;;;16.96;69.03;101043.69;10373977;28;96871;-74
2023/12/08 13:52:36;;;;;;;7.97;1.45;;;;;;;16.60;68.75;101040.31;10366986;28;97101;-75
2023/12/08 13:57:41;;;;;;;6.53;1.60;;;;;;;16.75;69.41;101048.34;10365978;28;97290;-77
2023/12/08 14:02:44;;;;;;;6.60;1.55;;;;;;;16.64;68.45;101045.38;10368331;28;97064;-77
2023/12/08 14:07:50;;;;;;;6.40;1.43;;;;;;;16.43;68.48;101048.31;10366509;28;97976;-77
2023/12/08 14:12:58;;;;;;;6.30;1.70;;;;;;;16.33;68.88;101045.19;10369212;28;97312;-77
2023/12/08 14:18:01;;;;;;;4.68;1.33;;;;;;;16.45;68.57;101051.72;10368111;28;96809;-77
2023/12/08 14:23:06;;;;;;;4.47;1.40;;;;;;;16.47;69.01;101058.69;10366838;28;96845;-76
2023/12/08 14:28:12;;;;;;;3.83;1.58;;;;;;;16.28;68.10;101057.00;10367783;28;97371;-76
2023/12/08 14:33:16;;;;;;;5.72;1.38;;;;;;;16.23;68.30;101064.34;10369780;28;98381;-76
2023/12/08 14:38:20;;;;;;;8.50;1.67;;;;;;;16.05;68.78;101067.91;10367071;28;97181;-77
2023/12/08 14:43:26;;;;;;;8.25;1.75;;;;;;;15.90;69.78;101081.00;10367975;28;96866;-77
2023/12/08 14:48:29;;;;;;;4.38;1.40;;;;;;;15.89;69.44;101081.91;10368106;28;97285;-76
2023/12/08 14:53:33;;;;;;;6.68;1.40;;;;;;;15.84;70.57;101091.03;10367935;28;97520;-76
2023/12/08 14:58:39;;;;;;;4.43;1.40;;;;;;;15.77;70.76;101093.13;10367258;28;98010;-76
2023/12/08 15:03:42;;;;;;;9.07;1.50;;;;;;;15.69;71.19;101099.72;10366016;28;97299;-76
2023/12/08 15:08:46;;;;;;;9.03;1.80;;;;;;;15.63;71.24;101094.72;10360206;28;98248;-76
2023/12/08 15:13:51;;;;;;;5.40;1.20;;;;;;;15.65;71.82;101103.44;10369905;28;96821;-77
2023/12/08 15:18:55;;;;;;;7.85;1.88;;;;;;;15.64;72.24;101107.91;10367088;28;98255;-76
2023/12/08 15:23:58;;;;;;;7.32;1.23;;;;;;;15.61;72.04;101115.16;10366819;28;97244;-76
2023/12/08 15:29:03;;;;;;;8.80;1.80;;;;;;;15.55;72.11;101108.31;10366158;28;96849;-76
2023/12/08 15:34:07;;;;;;;4.75;1.45;;;;;;;15.51;72.53;101122.66;10367322;28;98746;-76
2023/12/08 15:39:11;;;;;;;5.20;1.52;;;;;;;15.48;72.73;101132.53;10367295;28;97532;-76
2023/12/08 15:44:16;;;;;;;4.00;1.30;;;;;;;15.37;73.50;101132.19;10365263;28;97015;-76
2023/12/08 15:49:19;;;;;;;10.15;2.13;;;;;;;15.30;73.14;101133.41;10365759;28;96887;-76
2023/12/08 15:54:23;;;;;;;8.20;1.70;;;;;;;15.27;73.73;101144.13;10368021;28;97331;-76
2023/12/08 15:59:28;;;;;;;8.65;1.85;;;;;;;15.25;74.15;101144.16;10370211;28;96805;-76
2023/12/08 16:04:32;;;;;;;4.68;1.65;;;;;;;15.19;73.77;101149.75;10382736;28;97127;-76
2023/12/08 16:09:35;;;;;;;7.95;1.58;;;;;;;15.20;73.83;101143.50;10386746;27;97068;-75
2023/12/08 16:14:42;;;;;;;7.63;1.92;;;;;;;15.11;74.87;101133.28;10379603;28;96615;-76
2023/12/08 16:19:46;;;;;;;7.43;1.73;;;;;;;15.13;75.03;101134.09;10378948;28;96633;-75
2023/12/08 16:24:50;;;;;;;4.10;1.38;;;;;;;15.07;75.76;101123.78;10398033;28;96647;-76
2023/12/08 16:29:55;;;;;;;5.82;1.88;;;;;;;15.04;76.67;101115.09;10378999;28;96739;-76
2023/12/08 16:34:58;;;;;;;3.33;1.40;;;;;;;14.97;76.89;101109.22;10378877;28;96642;-77
2023/12/08 16:40:02;;;;;;;4.70;1.52;;;;;;;14.83;78.20;101114.25;10376362;28;96750;-76
2023/12/08 16:45:08;;;;;;;5.30;1.50;;;;;;;14.69;79.18;101121.94;10375664;28;97406;-76
2023/12/08 16:50:13;;;;;;;4.78;1.92;;;;;;;14.62;78.89;101142.53;10377923;28;96901;-76
2023/12/08 16:55:16;;;;;;;6.05;1.30;;;;;;;14.55;79.53;101153.44;10378144;28;96658;-76
2023/12/08 17:00:22;;;;;;;6.40;1.75;;;;;;;14.43;80.80;101152.16;10376309;28;96913;-78
2023/12/08 17:05:26;;;;;;;4.57;1.67;;;;;;;14.39;80.25;101165.56;10373779;28;96848;-77
2023/12/08 17:10:29;;;;;;;3.63;1.50;;;;;;;14.38;80.17;101171.81;10378497;28;96923;-78
2023/12/08 17:15:34;;;;;;;4.88;1.35;;;;;;;14.40;80.33;101162.84;10376132;28;97775;-77
2023/12/08 17:20:37;;;;;;;;;;;;;;;14.37;79.90;101156.81;10373493;28;97092;-77
2023/12/08 17:25:41;;;;;;;5.47;1.60;;;;;;;14.35;80.45;101164.81;10359814;28;98504;-77
2023/12/08 17:30:46;;;;;;;6.30;2.00;;;;;;;14.25;80.20;101137.00;10375041;28;97071;-77
2023/12/08 17:35:50;;;;;;;3.85;1.33;;;;;;;14.26;80.89;101190.81;10374602;28;97167;-78
2023/12/08 17:40:53;;;;;;;7.88;1.70;;;;;;;14.19;80.80;101199.94;10372025;28;96894;-79
2023/12/08 17:45:58;;;;;;;12.00;2.78;;;;;;;14.17;80.93;101192.06;10376406;28;96821;-79
2023/12/08 17:51:01;;;;;;;4.05;1.95;;;;;;;14.17;81.23;101201.78;10376835;28;97012;-79
2023/12/08 17:56:07;;;;;;;8.85;1.80;;;;;;;14.06;82.45;101196.03;10372805;28;96919;-79
2023/12/08 18:01:12;;;;;;;4.85;1.70;;;;;;;14.03;82.71;101204.97;10372436;28;96773;-79
2023/12/08 18:06:16;;;;;;;6.55;2.20;;;;;;;13.98;82.68;101228.06;10373048;28;96899;-79
2023/12/08 18:11:21;;;;;;;6.60;3.42;;;;;;;13.93;83.10;101230.03;10372730;28;97117;-77
2023/12/08 18:16:27;;;;;;;6.37;2.60;;;;;;;13.91;83.15;101230.97;10370946;28;96966;-82
2023/12/08 18:21:33;;;;;;;9.60;2.17;;;;;;;13.98;83.12;101237.78;10374496;28;97107;-82
2023/12/08 18:26:36;;;;;;;8.77;2.00;;;;;;;13.94;83.30;101221.16;10370336;28;96895;-78
2023/12/08 18:31:41;;;;;;;8.82;2.20;;;;;;;13.93;83.55;101227.38;10375097;28;96638;-78
2023/12/08 18:36:45;;;;;;;5.13;2.08;;;;;;;13.92;83.73;101220.34;10374787;28;96777;-79
2023/12/08 18:41:48;;;;;;;6.00;2.03;;;;;;;13.85;84.04;101224.13;10373897;28;98822;-75
2023/12/08 18:46:53;;;;;;;8.77;2.38;;;;;;;13.81;84.71;101230.47;10372946;28;96688;-75
2023/12/08 18:51:56;;;;;;;7.05;2.20;;;;;;;13.80;84.72;101230.50;10352686;28;97588;-75
2023/12/08 18:57:00;;;;;;;7.03;3.00;;;;;;;13.78;85.09;101245.59;10372787;28;98765;-78
2023/12/08 19:02:06;;;;;;;8.20;2.72;;;;;;;13.80;84.92;101243.75;10371645;28;98253;-77
2023/12/08 19:07:10;;;;;;;7.05;2.90;;;;;;;13.76;85.44;101232.44;10367163;28;97103;-78
2023/12/08 19:12:14;;;;;;;7.10;2.17;;;;;;;13.73;85.44;101240.47;10369607;28;98966;-76
2023/12/08 19:17:19;;;;;;;5.15;2.22;;;;;;;13.76;85.46;101258.03;10374022;28;96571;-76
2023/12/08 19:22:23;;;;;;;5.47;2.38;;;;;;;13.61;86.25;101248.84;10373743;28;96933;-76
2023/12/08 19:27:27;;;;;;;8.17;3.53;;;;;;;13.51;86.69;101223.66;10396515;27;97028;-76
2023/12/08 19:32:33;;;;;;;8.05;3.05;;;;;;;13.48;86.96;101216.69;10384690;27;97088;-76
2023/12/08 19:37:36;;;;;;;7.43;3.00;;;;;;;13.50;87.99;101222.78;10358680;22;97105;-76
2023/12/08 19:42:40;;;;;;;9.30;3.37;;;;;;;13.56;87.75;101227.00;10339319;28;96708;-76
2023/12/08 19:47:45;;;;;;;8.73;3.15;;;;;;;13.40;87.40;101225.81;10361276;28;96919;-76
2023/12/08 19:52:50;;;;;;;10.93;3.42;;;;;;;13.43;88.59;101231.00;10364008;28;97115;-76
2023/12/08 19:57:53;;;;;;;11.52;3.40;;;;;;;13.45;88.19;101234.44;10337174;28;96739;-76
2023/12/08 20:02:59;;;;;;;9.32;3.17;;;;;;;13.45;88.60;101253.81;10338129;28;96706;-76
2023/12/08 20:08:03;;;;;;;5.47;2.63;;;;;;;13.42;88.10;101246.00;10338327;28;97337;-75
2023/12/08 20:13:06;;;;;;;6.70;3.03;;;;;;;13.48;88.18;101242.28;10337798;28;96805;-75
2023/12/08 20:18:12;;;;;;;6.00;2.67;;;;;;;13.48;88.49;101239.66;10338346;28;96612;-75
2023/12/08 20:23:16;;;;;;;6.22;2.90;;;;;;;13.45;88.37;101243.25;10337952;28;97044;-75
2023/12/08 20:28:20;;;;;;;6.63;2.87;;;;;;;13.51;88.26;101258.03;10334447;28;96948;-76
2023/12/08 20:33:25;;;;;;;6.63;3.10;;;;;;;13.41;88.32;101256.63;10333002;28;97145;-75
2023/12/08 20:38:28;;;;;;;7.07;3.08;;;;;;;13.42;88.49;101261.00;10335034;28;97614;-75
2023/12/08 20:43:32;;;;;;;10.43;3.40;;;;;;;13.37;88.89;101255.88;10333811;28;96709;-75
2023/12/08 20:48:37;;;;;;;6.72;3.30;;;;;;;13.40;88.71;101261.06;10350732;28;96769;-75
2023/12/08 20:53:41;;;;;;;6.78;3.05;;;;;;;13.36;88.71;101256.78;10334723;28;96801;-76
2023/12/08 20:58:45;;;;;;;5.90;3.72;;;;;;;13.31;89.41;101257.88;10333639;28;97735;-83
2023/12/08 21:03:50;;;;;;;8.85;3.13;;;;;;;13.24;89.86;101265.13;10327954;28;96762;-75
2023/12/08 21:08:53;;;;;;;;;;;;;;;13.19;91.54;101260.94;10333624;28;99121;-75
2023/12/08 21:13:58;;;;;;;8.63;3.95;;;;;;;13.18;90.52;101264.50;10333343;28;98712;-75
2023/12/08 21:19:03;;;;;;;8.88;3.88;;;;;;;13.19;90.93;101272.38;10333130;28;98676;-75
2023/12/08 21:24:06;;;;;;;6.93;3.80;;;;;;;13.23;90.87;101278.41;10333433;28;98541;-75
2023/12/08 21:29:10;;;;;;;14.45;4.55;;;;;;;13.22;90.44;101261.72;10333791;28;97652;-75
2023/12/08 21:34:16;;;;;;;7.75;3.47;;;;;;;13.30;90.27;101256.13;10331061;28;96925;-75
2023/12/08 21:39:19;;;;;;;9.70;3.88;;;;;;;13.25;90.94;101243.09;10333583;28;96788;-75
2023/12/08 21:44:23;;;;;;;6.50;2.92;;;;;;;13.29;90.81;101228.84;10332171;28;97929;-74
2023/12/08 21:49:28;;;;;;;8.68;3.45;;;;;;;13.22;91.46;101215.91;10330724;28;96808;-75
2023/12/08 21:54:32;;;;;;;7.75;4.03;;;;;;;13.19;90.43;101221.31;10331745;28;96748;-79
2023/12/08 21:59:35;;;;;;;7.95;4.13;;;;;;;13.25;90.95;101213.16;10331860;28;96900;-79
2023/12/08 22:04:41;;;;;;;9.02;3.42;;;;;;;13.24;90.69;101212.28;10332998;28;96920;-79
2023/12/08 22:09:45;;;;;;;;;;;;;;;13.19;90.92;101208.09;10333707;28;97888;-79
2023/12/08 22:14:48;;;;;;;11.48;4.22;;;;;;;13.21;90.94;101220.31;10330142;28;96975;-79
2023/12/08 22:19:53;;;;;;;9.45;3.60;;;;;;;13.25;90.74;101208.75;10333293;28;96811;-78
2023/12/08 22:24:56;;;;;;;;;;;;;;;13.20;91.44;101210.69;10329104;28;97227;-78
2023/12/08 22:30:00;;;;;;;9.25;4.07;;;;;;;13.21;91.36;101214.16;10326215;28;97072;-78
2023/12/08 22:35:06;;;;;;;11.98;3.70;;;;;;;13.10;90.79;101216.34;10330914;28;97208;-77
2023/12/08 22:40:11;;;;;;;7.25;3.90;;;;;;;13.09;90.88;101214.59;10327068;28;98169;-78
2023/12/08 22:45:14;;;;;;;10.10;4.47;;;;;;;13.15;91.14;101199.41;10332362;28;96770;-78
2023/12/08 22:50:19;;;;;;;7.43;3.90;;;;;;;13.09;90.50;101193.44;10322481;28;98747;-77
2023/12/08 22:55:27;;;;;;;7.43;3.63;;;;;;;13.13;91.46;101187.16;10328166;28;98272;-77
2023/12/08 23:00:30;;;;;;;11.82;4.15;;;;;;;12.98;91.78;101177.13;10330137;28;96995;-78
2023/12/08 23:05:35;;;;;;;5.85;3.50;;;;;;;12.85;94.63;101166.13;10329327;28;97117;-77
2023/12/08 23:10:39;;;;;;;8.43;3.67;;;;;;;12.85;94.31;101163.47;10330465;28;96875;-77
2023/12/08 23:15:43;;;;;;;6.28;3.63;;;;;;;12.85;94.57;101163.47;10329012;28;96901;-77
2023/12/08 23:20:48;;;;;;;6.93;3.92;;;;;;;12.92;93.56;101172.91;10330354;28;96873;-76
2023/12/08 23:25:52;;;;;;;5.85;2.97;;;;;;;13.00;93.52;101172.66;10330675;28;97147;-77